Time;durP1;ratioP1;P1;durP2;ratioP2;P2;SDS_P1;SDS_P2;PMS_P1;PMS_P2;Temp;Humidity;BMP_temperature;BMP_pressure;BME280_temperature;BME280_humidity;BME280_pressure;Samples;Min_cycle;Max_cycle;Signal;HPM_P1;HPM_P2
2021/04/17 00:02:06;;;;;;;4.72;1.40;;;4.40;99.90;;;;;;5046921;28;20032;-77
2021/04/17 00:04:32;;;;;;;6.32;2.22;;;4.40;99.90;;;;;;5046863;28;20029;-76
2021/04/17 00:06:58;;;;;;;4.45;1.35;;;4.40;99.90;;;;;;5046556;28;20068;-76
2021/04/17 00:09:27;;;;;;;4.28;1.42;;;4.40;99.90;;;;;;5047067;28;20025;-77
2021/04/17 00:11:55;;;;;;;5.47;2.13;;;4.30;99.90;;;;;;5046961;28;20052;-77
2021/04/17 00:14:27;;;;;;;5.75;2.10;;;4.30;99.90;;;;;;5029033;28;20104;-77
2021/04/17 00:16:53;;;;;;;6.78;2.20;;;4.30;99.90;;;;;;5029171;28;20492;-77
2021/04/17 00:19:19;;;;;;;5.43;1.35;;;4.20;99.90;;;;;;5046812;28;20370;-77
2021/04/17 00:21:44;;;;;;;8.77;2.25;;;4.20;99.90;;;;;;5046696;28;20040;-77
2021/04/17 00:24:10;;;;;;;5.80;2.20;;;4.20;99.90;;;;;;5046682;28;20044;-77
2021/04/17 00:26:36;;;;;;;9.35;2.03;;;4.10;99.90;;;;;;5046646;28;20026;-77
2021/04/17 00:29:03;;;;;;;6.50;2.13;;;4.10;99.90;;;;;;5046521;28;20028;-77
2021/04/17 00:31:29;;;;;;;6.10;2.28;;;4.10;99.90;;;;;;5028974;28;20037;-76
2021/04/17 00:33:55;;;;;;;5.97;2.65;;;4.10;99.90;;;;;;5012923;28;20068;-77
2021/04/17 00:36:20;;;;;;;5.88;1.58;;;4.00;99.90;;;;;;5047889;28;20025;-77
2021/04/17 00:38:46;;;;;;;8.60;2.85;;;4.00;99.90;;;;;;5046456;28;20037;-77
2021/04/17 00:41:12;;;;;;;5.05;1.83;;;3.90;99.90;;;;;;5045791;28;20208;-77
2021/04/17 00:43:38;;;;;;;6.18;1.60;;;3.90;99.90;;;;;;5028731;28;20123;-77
2021/04/17 00:46:03;;;;;;;5.60;1.75;;;3.90;99.90;;;;;;5046168;28;20029;-77
2021/04/17 00:48:29;;;;;;;7.20;2.45;;;3.80;99.90;;;;;;5046256;28;20036;-77
2021/04/17 00:50:55;;;;;;;7.82;2.85;;;3.80;99.90;;;;;;5028358;28;20124;-77
2021/04/17 00:53:21;;;;;;;5.00;1.92;;;3.70;99.90;;;;;;5046170;28;20037;-77
2021/04/17 00:55:50;;;;;;;6.22;1.55;;;3.80;99.90;;;;;;5028254;28;20022;-77
2021/04/17 00:58:15;;;;;;;5.57;1.52;;;3.70;99.90;;;;;;5028308;28;20045;-77
2021/04/17 01:00:41;;;;;;;4.75;1.10;;;3.70;99.90;;;;;;5028207;28;20125;-77
2021/04/17 01:03:07;;;;;;;7.60;2.47;;;3.70;99.90;;;;;;5028379;28;20040;-77
2021/04/17 01:05:33;;;;;;;6.68;2.80;;;3.70;99.90;;;;;;5035986;28;20025;-77
2021/04/17 01:08:03;;;;;;;5.68;2.10;;;3.60;99.90;;;;;;5045499;28;20049;-77
2021/04/17 01:10:35;;;;;;;;;;;3.50;99.90;;;;;;5046252;28;20029;-77
2021/04/17 01:13:02;;;;;;;5.13;1.75;;;3.50;99.90;;;;;;5045726;28;19909;-77
2021/04/17 01:15:28;;;;;;;6.57;1.98;;;3.50;99.90;;;;;;5044250;28;20585;-77
2021/04/17 01:17:56;;;;;;;6.32;2.20;;;3.40;99.90;;;;;;5045890;28;20041;-77
2021/04/17 01:20:47;;;;;;;6.28;2.63;;;3.40;99.90;;;;;;5044347;28;20093;-77
2021/04/17 01:23:40;;;;;;;6.38;1.90;;;3.40;99.90;;;;;;5027979;28;20037;-77
2021/04/17 01:26:11;;;;;;;7.47;2.50;;;3.30;99.90;;;;;;5045883;28;20056;-76
2021/04/17 01:28:41;;;;;;;8.00;2.47;;;3.30;99.90;;;;;;5045561;28;20034;-76
2021/04/17 01:31:10;;;;;;;7.40;2.50;;;3.20;99.90;;;;;;5045504;28;20025;-76
2021/04/17 01:33:42;;;;;;;6.55;2.25;;;3.20;99.90;;;;;;5045478;28;20040;-77
2021/04/17 01:36:09;;;;;;;3.92;1.00;;;3.20;99.90;;;;;;5045230;28;20030;-77
2021/04/17 01:38:44;;;;;;;6.90;2.03;;;3.20;99.90;;;;;;5043998;28;20045;-77
2021/04/17 01:41:15;;;;;;;4.63;1.80;;;3.20;99.90;;;;;;5027742;28;20040;-77
2021/04/17 01:43:41;;;;;;;6.97;2.30;;;3.10;99.90;;;;;;5027653;28;20033;-77
2021/04/17 01:46:12;;;;;;;6.03;1.77;;;3.00;99.90;;;;;;5044049;28;20093;-76
2021/04/17 01:48:38;;;;;;;9.30;2.63;;;3.00;99.90;;;;;;5045332;28;20104;-77
2021/04/17 01:51:05;;;;;;;5.78;2.22;;;3.00;99.90;;;;;;5045301;28;20507;-77
2021/04/17 01:53:32;;;;;;;6.85;2.22;;;2.90;99.90;;;;;;5030092;28;20037;-78
2021/04/17 01:56:00;;;;;;;7.57;2.38;;;2.90;99.90;;;;;;5015160;28;20029;-77
2021/04/17 01:58:31;;;;;;;6.88;2.65;;;2.90;99.90;;;;;;5047972;28;20037;-76
2021/04/17 02:00:58;;;;;;;6.82;2.45;;;2.90;99.90;;;;;;5049251;28;20033;-77
2021/04/17 02:03:25;;;;;;;8.98;2.10;;;2.90;99.90;;;;;;5014856;28;20037;-77
2021/04/17 02:05:52;;;;;;;10.70;2.67;;;2.80;99.90;;;;;;5041528;28;20481;-77
2021/04/17 02:08:18;;;;;;;8.68;3.00;;;2.80;99.90;;;;;;5031267;28;20060;-77
2021/04/17 02:10:48;;;;;;;6.85;2.13;;;2.80;99.90;;;;;;5047888;28;20053;-77
2021/04/17 02:13:14;;;;;;;9.87;3.10;;;2.80;99.90;;;;;;5049011;28;20041;-76
2021/04/17 02:15:41;;;;;;;10.55;3.75;;;2.80;99.90;;;;;;5048849;28;20088;-77
2021/04/17 02:18:26;;;;;;;8.13;2.55;;;2.80;99.90;;;;;;5048654;28;20041;-77
2021/04/17 02:21:04;;;;;;;9.50;3.75;;;2.70;99.90;;;;;;5031156;28;20049;-77
2021/04/17 02:23:30;;;;;;;12.52;3.47;;;2.70;99.90;;;;;;5049013;28;20117;-77
2021/04/17 02:25:57;;;;;;;9.32;2.40;;;2.60;99.90;;;;;;5048857;28;20029;-76
2021/04/17 02:28:25;;;;;;;9.88;3.60;;;2.70;99.90;;;;;;5047570;28;20033;-77
2021/04/17 02:30:51;;;;;;;7.95;2.67;;;2.70;99.90;;;;;;5031029;28;20083;-77
2021/04/17 02:33:17;;;;;;;5.78;2.35;;;2.70;99.90;;;;;;5048509;28;20022;-76
2021/04/17 02:35:42;;;;;;;7.05;2.67;;;2.60;99.90;;;;;;5048396;28;20482;-77
2021/04/17 02:38:08;;;;;;;7.10;2.17;;;2.60;99.90;;;;;;5030788;28;20045;-77
2021/04/17 02:40:34;;;;;;;7.53;2.08;;;2.60;99.90;;;;;;5030602;28;20044;-77
2021/04/17 02:42:59;;;;;;;7.50;2.97;;;2.60;99.90;;;;;;5030742;28;20029;-77
2021/04/17 02:45:25;;;;;;;7.72;2.35;;;2.60;99.90;;;;;;5047035;28;20029;-77
2021/04/17 02:47:51;;;;;;;7.07;2.58;;;2.60;99.90;;;;;;5030442;28;20102;-77
2021/04/17 02:50:16;;;;;;;5.68;1.73;;;2.60;99.90;;;;;;5048418;28;20450;-77
2021/04/17 02:52:42;;;;;;;8.35;2.55;;;2.60;99.90;;;;;;5014617;28;20034;-77
2021/04/17 02:55:09;;;;;;;7.30;2.65;;;2.60;99.90;;;;;;5048120;28;20029;-77
2021/04/17 02:57:35;;;;;;;7.03;2.58;;;2.60;99.90;;;;;;5014176;28;20046;-77
2021/04/17 03:00:00;;;;;;;6.75;2.17;;;2.50;99.90;;;;;;5030493;28;20052;-77
2021/04/17 03:02:26;;;;;;;6.03;2.33;;;2.50;99.90;;;;;;5030338;28;20448;-77
2021/04/17 03:04:52;;;;;;;7.50;2.47;;;2.50;99.90;;;;;;5031638;28;20026;-76
2021/04/17 03:07:18;;;;;;;7.65;2.83;;;2.50;99.90;;;;;;5047926;28;20410;-77
2021/04/17 03:09:43;;;;;;;6.43;2.35;;;2.50;99.90;;;;;;5048161;28;20473;-76
2021/04/17 03:12:09;;;;;;;9.48;2.88;;;2.50;99.90;;;;;;5046920;28;20029;-77
2021/04/17 03:14:35;;;;;;;5.85;2.03;;;2.50;99.90;;;;;;5030018;28;20040;-77
2021/04/17 03:17:01;;;;;;;7.80;2.00;;;2.50;99.90;;;;;;5047905;28;20025;-77
2021/04/17 03:19:26;;;;;;;7.88;2.15;;;2.50;99.90;;;;;;5047764;28;20036;-77
2021/04/17 03:21:53;;;;;;;5.07;1.83;;;2.50;99.90;;;;;;5047982;28;20021;-77
2021/04/17 03:24:19;;;;;;;6.30;1.75;;;2.40;99.90;;;;;;5047797;28;20227;-77
2021/04/17 03:26:45;;;;;;;5.55;2.40;;;2.40;99.90;;;;;;5047864;28;20652;-76
2021/04/17 03:29:10;;;;;;;5.13;1.60;;;2.40;99.90;;;;;;5046647;28;20022;-77
2021/04/17 03:31:36;;;;;;;3.30;1.30;;;2.30;99.90;;;;;;5029840;28;20474;-77
2021/04/17 03:34:01;;;;;;;4.22;1.45;;;2.30;99.90;;;;;;5029791;28;20070;-77
2021/04/17 03:36:27;;;;;;;6.75;1.60;;;2.30;99.90;;;;;;5047392;28;20090;-76
2021/04/17 03:38:54;;;;;;;7.00;1.98;;;2.30;99.90;;;;;;5013495;28;20041;-77
2021/04/17 03:41:20;;;;;;;6.38;2.75;;;2.40;99.90;;;;;;5013520;28;20139;-77
2021/04/17 03:43:45;;;;;;;7.43;2.85;;;2.40;99.90;;;;;;5029528;28;20026;-77
2021/04/17 03:46:11;;;;;;;5.22;1.98;;;2.40;99.90;;;;;;5029727;28;20026;-77
2021/04/17 03:48:36;;;;;;;8.40;1.95;;;2.30;99.90;;;;;;5047368;28;20440;-77
2021/04/17 03:51:02;;;;;;;8.70;2.17;;;2.30;99.90;;;;;;5029780;28;20025;-77
2021/04/17 03:53:28;;;;;;;4.75;1.63;;;2.30;99.90;;;;;;5047588;28;20059;-77
2021/04/17 03:55:53;;;;;;;5.25;1.88;;;2.30;99.90;;;;;;5047178;28;20033;-77
2021/04/17 03:58:19;;;;;;;6.55;2.50;;;2.30;99.90;;;;;;5047222;28;20128;-77
2021/04/17 04:00:44;;;;;;;6.30;2.72;;;2.30;99.90;;;;;;5029323;28;20036;-77
2021/04/17 04:03:10;;;;;;;6.03;1.65;;;2.30;99.90;;;;;;5047364;28;20055;-77
2021/04/17 04:05:36;;;;;;;6.57;1.63;;;2.30;99.90;;;;;;5046568;28;20025;-78
2021/04/17 04:08:01;;;;;;;3.67;1.27;;;2.30;99.90;;;;;;5046842;28;20136;-77
2021/04/17 04:10:27;;;;;;;5.43;1.70;;;2.30;99.90;;;;;;5046786;28;20477;-77
2021/04/17 04:12:53;;;;;;;7.40;1.40;;;2.30;99.90;;;;;;5029135;28;20113;-77
2021/04/17 04:15:18;;;;;;;5.03;1.40;;;2.20;99.90;;;;;;5046380;28;20489;-78
2021/04/17 04:17:45;;;;;;;5.70;1.80;;;2.30;99.90;;;;;;5044557;28;20037;-77
2021/04/17 04:20:12;;;;;;;6.25;1.80;;;2.20;99.90;;;;;;5012143;28;20044;-77
2021/04/17 04:22:37;;;;;;;5.13;1.30;;;2.20;99.90;;;;;;5045365;28;20072;-77
2021/04/17 04:25:07;;;;;;;8.13;2.08;;;2.20;99.90;;;;;;5045032;28;20099;-77
2021/04/17 04:27:33;;;;;;;5.05;1.30;;;2.20;99.90;;;;;;5046584;28;20053;-77
2021/04/17 04:29:59;;;;;;;6.30;2.22;;;2.20;99.90;;;;;;5046460;28;20021;-77
2021/04/17 04:32:25;;;;;;;3.58;1.23;;;2.20;99.90;;;;;;5045104;28;20041;-77
2021/04/17 04:34:51;;;;;;;7.45;3.13;;;2.20;99.90;;;;;;5044749;28;20025;-77
2021/04/17 04:37:25;;;;;;;7.03;2.08;;;2.20;99.90;;;;;;5143989;27;697093;-77
2021/04/17 04:39:51;;;;;;;5.57;1.10;;;2.20;99.90;;;;;;5144183;28;20027;-76
2021/04/17 04:42:16;;;;;;;7.38;1.80;;;2.20;99.90;;;;;;5142751;28;20027;-77
2021/04/17 04:44:42;;;;;;;4.28;1.02;;;2.10;99.90;;;;;;5142715;28;20034;-76
2021/04/17 04:47:08;;;;;;;7.22;1.95;;;2.10;99.90;;;;;;5142472;28;20088;-77
2021/04/17 04:49:33;;;;;;;4.30;1.77;;;2.20;99.90;;;;;;5142090;28;20099;-76
2021/04/17 04:51:59;;;;;;;4.55;1.33;;;2.20;99.90;;;;;;5141864;28;20034;-76
2021/04/17 04:54:25;;;;;;;5.13;1.55;;;2.20;99.90;;;;;;5141854;28;20050;-76
2021/04/17 04:56:50;;;;;;;4.15;1.35;;;2.20;99.90;;;;;;5124576;28;20394;-76
2021/04/17 04:59:16;;;;;;;6.50;2.03;;;2.30;99.90;;;;;;5141929;28;20028;-76
2021/04/17 05:01:42;;;;;;;7.03;1.88;;;2.30;99.90;;;;;;5124571;28;20023;-77
2021/04/17 05:04:07;;;;;;;7.68;1.63;;;2.30;99.90;;;;;;5141744;28;20078;-77
2021/04/17 05:06:33;;;;;;;5.68;1.30;;;2.30;99.90;;;;;;5124071;28;20031;-76
2021/04/17 05:08:59;;;;;;;8.30;2.10;;;2.30;99.90;;;;;;5141695;28;20038;-77
2021/04/17 05:11:24;;;;;;;5.35;1.98;;;2.40;99.90;;;;;;5141574;28;20053;-77
2021/04/17 05:13:51;;;;;;;7.40;2.20;;;2.40;99.90;;;;;;5124195;28;20027;-76
2021/04/17 05:16:17;;;;;;;4.25;1.70;;;2.50;99.90;;;;;;5124312;28;20148;-76
2021/04/17 05:18:43;;;;;;;4.95;2.47;;;2.50;99.90;;;;;;5124402;28;20505;-76
2021/04/17 05:21:08;;;;;;;7.13;2.28;;;2.50;99.90;;;;;;5142740;28;20054;-78
2021/04/17 05:23:34;;;;;;;5.50;2.03;;;2.50;99.90;;;;;;5141415;28;20027;-76
2021/04/17 05:26:00;;;;;;;5.75;1.70;;;2.50;99.90;;;;;;5142519;28;20031;-76
2021/04/17 05:28:26;;;;;;;6.93;2.45;;;2.60;99.90;;;;;;5141449;28;20046;-77
2021/04/17 05:30:51;;;;;;;2.90;1.23;;;2.60;99.90;;;;;;5124112;28;20019;-76
2021/04/17 05:33:17;;;;;;;7.88;2.00;;;2.60;99.90;;;;;;5141502;28;20436;-76
2021/04/17 05:35:43;;;;;;;5.22;1.60;;;2.70;99.90;;;;;;5140676;28;20056;-76
2021/04/17 05:38:08;;;;;;;7.03;2.30;;;2.70;99.90;;;;;;5142425;28;20031;-76
2021/04/17 05:40:34;;;;;;;7.15;2.30;;;2.80;99.90;;;;;;5124031;28;20038;-76
2021/04/17 05:42:59;;;;;;;8.30;2.17;;;2.80;99.90;;;;;;5123870;28;20027;-76
2021/04/17 05:45:25;;;;;;;6.55;2.00;;;2.90;99.90;;;;;;5142147;28;20031;-76
2021/04/17 05:47:51;;;;;;;8.82;2.40;;;2.90;99.90;;;;;;5133857;27;20038;-76
2021/04/17 05:50:16;;;;;;;4.93;2.03;;;3.00;99.90;;;;;;5127124;28;20062;-76
2021/04/17 05:52:42;;;;;;;3.45;1.55;;;3.00;99.90;;;;;;5127164;28;20052;-76
2021/04/17 05:55:09;;;;;;;4.13;1.08;;;3.00;99.90;;;;;;5126986;28;20030;-76
2021/04/17 05:57:35;;;;;;;5.68;1.88;;;3.10;99.90;;;;;;5128300;28;20024;-77
2021/04/17 06:00:01;;;;;;;5.60;2.58;;;3.30;99.90;;;;;;5127188;28;20038;-76
2021/04/17 06:02:26;;;;;;;9.93;2.65;;;3.40;99.90;;;;;;5126910;28;20451;-76
2021/04/17 06:04:52;;;;;;;8.00;2.38;;;3.40;99.90;;;;;;5126515;28;20031;-77
2021/04/17 06:07:18;;;;;;;7.32;1.85;;;3.50;99.90;;;;;;5113743;28;20031;-76
2021/04/17 06:09:43;;;;;;;10.27;3.40;;;3.60;99.90;;;;;;5106396;28;20039;-76
2021/04/17 06:12:10;;;;;;;9.02;3.10;;;3.70;99.90;;;;;;5107595;28;20051;-77
2021/04/17 06:14:35;;;;;;;7.78;2.38;;;3.80;99.90;;;;;;5107674;28;20067;-76
2021/04/17 06:17:01;;;;;;;7.25;3.15;;;3.90;99.90;;;;;;5106140;28;20043;-77
2021/04/17 06:19:26;;;;;;;6.20;1.80;;;3.90;99.90;;;;;;5107651;28;20024;-76
2021/04/17 06:21:52;;;;;;;6.65;2.05;;;4.10;99.90;;;;;;5105957;28;20043;-76
2021/04/17 06:24:18;;;;;;;5.53;2.33;;;4.20;99.90;;;;;;5108366;28;20058;-76
2021/04/17 06:26:43;;;;;;;5.05;1.85;;;4.30;99.90;;;;;;5108730;28;20048;-77
2021/04/17 06:29:09;;;;;;;7.82;3.22;;;4.50;99.90;;;;;;5107624;28;20020;-77
2021/04/17 06:31:35;;;;;;;13.52;2.67;;;4.60;99.90;;;;;;5106490;28;20323;-77
2021/04/17 06:34:01;;;;;;;6.95;2.22;;;4.70;99.90;;;;;;5088896;28;20282;-76
2021/04/17 06:36:27;;;;;;;6.22;2.22;;;4.80;99.90;;;;;;5105453;28;20058;-77
2021/04/17 06:38:52;;;;;;;7.20;2.05;;;4.90;99.90;;;;;;5105895;28;20039;-76
2021/04/17 06:41:20;;;;;;;4.97;1.73;;;5.00;99.90;;;;;;5107123;28;20077;-76
2021/04/17 06:43:48;;;;;;;9.93;3.00;;;5.10;99.90;;;;;;5105684;28;20093;-77
2021/04/17 06:46:15;;;;;;;7.30;4.22;;;5.20;99.90;;;;;;5088965;28;20036;-77
2021/04/17 06:48:41;;;;;;;5.43;1.85;;;5.30;99.90;;;;;;5106372;28;20032;-77
2021/04/17 06:51:15;;;;;;;8.27;1.63;;;5.40;99.90;;;;;;5105512;28;20020;-78
2021/04/17 06:53:41;;;;;;;5.35;1.65;;;5.60;99.90;;;;;;5107807;28;20043;-77
2021/04/17 06:56:08;;;;;;;7.30;2.13;;;5.60;99.90;;;;;;5108618;28;20134;-77
2021/04/17 06:58:35;;;;;;;7.05;1.70;;;5.60;99.90;;;;;;5108169;28;20035;-77
2021/04/17 07:01:00;;;;;;;5.78;1.30;;;5.90;99.90;;;;;;5125713;28;20078;-78
2021/04/17 07:03:26;;;;;;;10.82;2.20;;;6.20;99.90;;;;;;5108432;28;20475;-78
2021/04/17 07:05:52;;;;;;;6.38;1.98;;;6.00;99.90;;;;;;5123223;28;20491;-78
2021/04/17 07:08:17;;;;;;;4.45;2.00;;;6.10;99.90;;;;;;5106121;28;20039;-77
2021/04/17 07:10:43;;;;;;;8.38;1.73;;;6.30;99.90;;;;;;5105019;28;20031;-78
2021/04/17 07:13:11;;;;;;;4.68;1.25;;;6.40;99.90;;;;;;5088060;28;20034;-78
2021/04/17 07:15:39;;;;;;;6.35;1.60;;;6.60;99.90;;;;;;5104868;28;20058;-77
2021/04/17 07:18:23;;;;;;;6.53;1.50;;;6.70;99.90;;;;;;5104929;28;20067;-77
2021/04/17 07:20:49;;;;;;;4.82;1.52;;;6.70;99.90;;;;;;5104580;28;20032;-78
2021/04/17 07:23:30;;;;;;;15.52;2.45;;;6.70;99.90;;;;;;5104908;28;20032;-77
2021/04/17 07:26:14;;;;;;;5.18;1.25;;;6.70;99.90;;;;;;5104649;28;20032;-78
2021/04/17 07:28:59;;;;;;;6.60;0.80;;;7.00;99.90;;;;;;5121979;28;20051;-78
2021/04/17 07:31:27;;;;;;;4.00;1.38;;;7.00;99.90;;;;;;5126516;28;20058;-78
2021/04/17 07:33:54;;;;;;;7.00;1.00;;;7.10;99.90;;;;;;5108967;28;20028;-77
2021/04/17 07:36:21;;;;;;;5.75;1.23;;;7.20;99.90;;;;;;5126324;28;20353;-77
2021/04/17 07:38:47;;;;;;;8.82;1.52;;;7.10;99.90;;;;;;5124959;28;20034;-78
2021/04/17 07:41:19;;;;;;;6.45;1.23;;;7.00;99.90;;;;;;5125927;28;20083;-76
2021/04/17 07:43:54;;;;;;;7.30;1.40;;;7.50;99.90;;;;;;5125844;28;20054;-77
2021/04/17 07:46:26;;;;;;;6.07;1.38;;;7.40;99.90;;;;;;5124836;28;20031;-77
2021/04/17 07:49:08;;;;;;;3.33;1.35;;;7.60;99.90;;;;;;5125040;28;20031;-77
2021/04/17 07:51:56;;;;;;;6.93;1.75;;;7.70;99.90;;;;;;5124816;28;20110;-77
2021/04/17 07:54:22;;;;;;;7.45;1.40;;;8.00;99.90;;;;;;5107491;28;20024;-77
2021/04/17 07:56:48;;;;;;;6.60;0.70;;;8.00;99.90;;;;;;5124730;28;20046;-78
2021/04/17 07:59:18;;;;;;;3.78;1.08;;;8.30;99.90;;;;;;5124786;28;20023;-78
2021/04/17 08:01:44;;;;;;;4.20;1.20;;;8.30;99.90;;;;;;5124851;28;20032;-78
2021/04/17 08:04:11;;;;;;;5.50;0.80;;;8.20;99.90;;;;;;5124497;28;20042;-78
2021/04/17 08:06:37;;;;;;;7.00;1.10;;;8.40;99.90;;;;;;5112457;28;20091;-78
2021/04/17 08:09:03;;;;;;;6.15;0.93;;;8.40;99.90;;;;;;5107613;28;20028;-78
2021/04/17 08:11:30;;;;;;;5.13;1.38;;;8.30;99.90;;;;;;5124405;28;20039;-78
2021/04/17 08:13:57;;;;;;;6.53;1.40;;;8.60;99.90;;;;;;5125573;28;20028;-78
2021/04/17 08:16:24;;;;;;;5.57;1.13;;;8.70;99.90;;;;;;5124557;28;20063;-78
2021/04/17 08:18:49;;;;;;;6.40;0.95;;;8.80;99.90;;;;;;5107545;28;20035;-78
2021/04/17 08:21:20;;;;;;;6.30;0.88;;;8.80;99.90;;;;;;5125099;28;20077;-78
2021/04/17 08:23:49;;;;;;;4.60;0.93;;;9.00;99.90;;;;;;5107402;28;20110;-78
2021/04/17 08:26:15;;;;;;;3.33;1.00;;;9.20;99.90;;;;;;5124470;28;20118;-78
2021/04/17 08:28:46;;;;;;;4.85;0.85;;;9.30;99.90;;;;;;5125841;28;20031;-78
2021/04/17 08:31:33;;;;;;;5.50;1.00;;;9.10;99.90;;;;;;5124478;28;20051;-78
2021/04/17 08:34:19;;;;;;;4.25;0.80;;;9.30;99.90;;;;;;5124349;28;20047;-78
2021/04/17 08:37:01;;;;;;;7.18;1.15;;;9.50;99.90;;;;;;5124113;28;20044;-78
2021/04/17 08:39:36;;;;;;;5.55;0.60;;;9.40;99.90;;;;;;5124505;28;20031;-78
2021/04/17 08:42:16;;;;;;;5.97;1.13;;;9.90;99.90;;;;;;5124485;28;20122;-78
2021/04/17 08:44:46;;;;;;;;;;;9.90;99.90;;;;;;5124646;28;20041;-78
2021/04/17 08:47:33;;;;;;;4.22;0.70;;;10.00;99.90;;;;;;5125690;28;19984;-78
2021/04/17 08:50:26;;;;;;;5.93;1.00;;;10.20;99.90;;;;;;5124249;28;20032;-78
2021/04/17 08:53:03;;;;;;;7.90;1.02;;;9.90;99.90;;;;;;5124397;28;20056;-78
2021/04/17 08:55:50;;;;;;;6.20;1.13;;;10.30;99.90;;;;;;5106860;28;20038;-78
2021/04/17 08:58:21;;;;;;;5.10;1.45;;;10.40;99.90;;;;;;5125522;28;20185;-78
2021/04/17 09:00:53;;;;;;;6.03;0.90;;;10.20;99.90;;;;;;5125539;28;20028;-78
2021/04/17 09:03:39;;;;;;;8.77;1.60;;;10.20;99.90;;;;;;5124229;28;20035;-78
2021/04/17 09:06:25;;;;;;;3.83;0.80;;;10.10;99.90;;;;;;5106843;28;20030;-78
2021/04/17 09:09:16;;;;;;;4.03;0.90;;;10.20;99.90;;;;;;5092626;28;20043;-78
2021/04/17 09:11:48;;;;;;;6.68;0.90;;;10.20;99.90;;;;;;5123825;28;20369;-77
2021/04/17 09:14:26;;;;;;;3.55;0.80;;;10.60;99.90;;;;;;5106745;28;20120;-77
2021/04/17 09:16:53;;;;;;;5.03;1.13;;;11.10;99.90;;;;;;5125047;28;20032;-78
2021/04/17 09:19:38;;;;;;;4.47;1.10;;;11.00;99.90;;;;;;5125216;28;20016;-78
2021/04/17 09:22:26;;;;;;;6.25;1.02;;;11.10;99.90;;;;;;5125484;28;20023;-78
2021/04/17 09:24:56;;;;;;;6.10;0.98;;;11.30;99.90;;;;;;5128870;28;20024;-78
2021/04/17 09:27:26;;;;;;;8.30;1.90;;;11.70;99.90;;;;;;5127662;28;20319;-78
2021/04/17 09:30:02;;;;;;;6.43;1.20;;;11.80;99.90;;;;;;5110582;28;20084;-78
2021/04/17 09:32:48;;;;;;;7.00;1.30;;;11.30;99.90;;;;;;5128954;28;20442;-78
2021/04/17 09:35:26;;;;;;;8.13;1.65;;;11.00;99.90;;;;;;5126985;28;20024;-78
2021/04/17 09:37:58;;;;;;;8.88;1.73;;;11.20;99.90;;;;;;5127629;28;20055;-78
2021/04/17 09:40:57;;;;;;;7.60;0.88;;;11.40;99.90;;;;;;5110219;28;20095;-78
2021/04/17 09:43:25;;;;;;;5.53;1.60;;;11.70;99.90;;;;;;5123032;28;20047;-78
2021/04/17 09:45:52;;;;;;;7.03;1.35;;;11.20;99.90;;;;;;5127164;28;20067;-78
2021/04/17 09:48:21;;;;;;;6.05;1.40;;;11.70;99.90;;;;;;5110233;28;20103;-78
2021/04/17 09:50:48;;;;;;;7.10;1.50;;;11.90;99.90;;;;;;5127200;28;20020;-78
2021/04/17 09:53:34;;;;;;;11.27;1.95;;;12.10;99.90;;;;;;5127179;28;20032;-78
2021/04/17 09:56:02;;;;;;;10.43;2.00;;;11.60;99.90;;;;;;5109952;28;20040;-78
2021/04/17 09:58:31;;;;;;;7.57;1.27;;;11.60;99.90;;;;;;5109982;28;20035;-78
2021/04/17 10:01:07;;;;;;;4.20;1.00;;;11.70;99.90;;;;;;5110133;28;20065;-79
2021/04/17 10:03:34;;;;;;;7.88;1.65;;;11.90;99.90;;;;;;5109611;28;20095;-78
2021/04/17 10:06:00;;;;;;;3.70;1.17;;;11.50;99.90;;;;;;5112234;28;20059;-80
2021/04/17 10:08:32;;;;;;;6.28;0.98;;;11.60;99.90;;;;;;5106595;28;20080;-78
2021/04/17 10:10:59;;;;;;;7.03;1.10;;;11.90;99.90;;;;;;5089424;28;20498;-79
2021/04/17 10:13:44;;;;;;;8.90;1.75;;;11.50;99.90;;;;;;5109149;28;20041;-79
2021/04/17 10:16:12;;;;;;;4.75;1.58;;;11.90;99.90;;;;;;5109517;28;20043;-78
2021/04/17 10:18:42;;;;;;;7.07;1.35;;;12.40;99.90;;;;;;5109908;28;20027;-79
2021/04/17 10:21:08;;;;;;;6.65;1.67;;;12.70;99.90;;;;;;5081848;28;20178;-79
2021/04/17 10:23:34;;;;;;;7.63;0.85;;;12.60;99.90;;;;;;5054138;28;20049;-78
2021/04/17 10:26:08;;;;;;;7.50;1.52;;;12.30;99.90;;;;;;5073199;28;20030;-78
2021/04/17 10:28:35;;;;;;;5.75;1.08;;;12.00;99.90;;;;;;5073630;28;20039;-79
2021/04/17 10:31:19;;;;;;;5.20;1.10;;;12.00;99.90;;;;;;5069010;28;20088;-78
2021/04/17 10:33:47;;;;;;;8.30;0.90;;;11.50;99.90;;;;;;5069249;28;20048;-78
2021/04/17 10:36:18;;;;;;;6.85;0.88;;;12.10;99.90;;;;;;5069899;28;20132;-78
2021/04/17 10:38:44;;;;;;;3.03;0.65;;;12.30;99.90;;;;;;5075124;28;20373;-79
2021/04/17 10:41:14;;;;;;;4.43;0.60;;;12.90;99.90;;;;;;5055104;28;20025;-79
2021/04/17 10:43:40;;;;;;;5.20;0.70;;;12.80;99.90;;;;;;5065139;28;20029;-79
2021/04/17 10:46:06;;;;;;;4.15;0.52;;;12.70;99.90;;;;;;5064360;28;20112;-79
2021/04/17 10:48:43;;;;;;;4.13;0.60;;;13.00;99.90;;;;;;5069819;28;20048;-80
2021/04/17 10:51:11;;;;;;;2.55;0.60;;;13.00;99.90;;;;;;5072229;28;20025;-79
2021/04/17 10:53:42;;;;;;;6.25;0.82;;;12.70;99.90;;;;;;5070378;28;20036;-81
2021/04/17 10:56:16;;;;;;;5.60;1.20;;;12.40;99.90;;;;;;5049788;28;20028;-78
2021/04/17 10:58:43;;;;;;;5.43;0.80;;;12.80;99.90;;;;;;5071521;28;20086;-79
2021/04/17 11:01:23;;;;;;;4.15;0.68;;;13.00;99.90;;;;;;5072820;28;20468;-79
2021/04/17 11:03:57;;;;;;;5.73;0.90;;;12.90;99.90;;;;;;5049910;28;20093;-80
2021/04/17 11:06:28;;;;;;;3.88;0.88;;;12.60;99.90;;;;;;5059852;28;20297;-78
2021/04/17 11:09:10;;;;;;;3.28;0.68;;;12.10;99.90;;;;;;5073761;28;20036;-78
2021/04/17 11:11:57;;;;;;;5.85;0.80;;;11.90;99.90;;;;;;5083935;28;20071;-78
2021/04/17 11:14:25;;;;;;;3.78;0.60;;;12.00;99.90;;;;;;5081856;28;20465;-78
2021/04/17 11:16:52;;;;;;;3.92;0.80;;;12.50;99.90;;;;;;5077201;28;20037;-78
2021/04/17 11:19:25;;;;;;;2.22;0.55;;;12.90;99.90;;;;;;5070070;28;20033;-78
2021/04/17 11:22:15;;;;;;;4.28;1.33;;;12.70;99.90;;;;;;5076363;28;20029;-77
2021/04/17 11:24:43;;;;;;;5.47;0.63;;;12.30;99.90;;;;;;5064097;28;20029;-78
2021/04/17 11:27:09;;;;;;;5.50;1.00;;;12.10;99.90;;;;;;5064560;28;20033;-78
2021/04/17 11:29:35;;;;;;;6.43;0.80;;;12.30;99.90;;;;;;5064383;28;20131;-78
2021/04/17 11:32:02;;;;;;;4.40;0.47;;;12.10;99.90;;;;;;5064187;28;20029;-78
2021/04/17 11:34:28;;;;;;;2.97;0.70;;;11.90;99.90;;;;;;5063703;28;20040;-78
2021/04/17 11:36:54;;;;;;;3.75;0.93;;;11.60;99.90;;;;;;5063917;28;20057;-78
2021/04/17 11:39:19;;;;;;;4.20;0.73;;;11.80;99.90;;;;;;5049777;28;20036;-78
2021/04/17 11:41:46;;;;;;;6.55;0.80;;;12.20;99.90;;;;;;5063691;28;20029;-78
2021/04/17 11:44:12;;;;;;;5.03;1.05;;;13.00;99.90;;;;;;5067448;28;20040;-79
2021/04/17 11:46:38;;;;;;;5.38;0.70;;;13.50;99.90;;;;;;5046597;28;20033;-78
2021/04/17 11:49:05;;;;;;;5.32;0.93;;;13.30;99.90;;;;;;5047544;28;20078;-78
2021/04/17 11:51:30;;;;;;;7.20;0.93;;;13.30;99.90;;;;;;5064118;28;20484;-78
2021/04/17 11:53:56;;;;;;;4.22;0.73;;;13.40;99.90;;;;;;5047018;28;20063;-78
2021/04/17 11:56:22;;;;;;;13.70;1.67;;;12.40;99.90;;;;;;5074589;28;20037;-79
2021/04/17 11:58:48;;;;;;;2.70;0.95;;;12.30;99.90;;;;;;5075860;28;20029;-79
2021/04/17 12:01:13;;;;;;;6.50;0.95;;;12.40;99.90;;;;;;5066825;28;20093;-78
2021/04/17 12:03:39;;;;;;;8.75;0.98;;;12.90;99.90;;;;;;5074157;28;20037;-79
2021/04/17 12:06:07;;;;;;;4.18;0.55;;;13.30;99.90;;;;;;5072084;28;20028;-78
2021/04/17 12:08:33;;;;;;;4.60;0.70;;;13.30;99.90;;;;;;5072802;28;20417;-78
2021/04/17 12:11:01;;;;;;;4.90;0.80;;;12.80;99.90;;;;;;5054347;28;20048;-81
2021/04/17 12:13:27;;;;;;;4.00;0.70;;;12.50;99.90;;;;;;5064215;28;20510;-78
2021/04/17 12:15:52;;;;;;;2.42;0.70;;;12.70;99.90;;;;;;5065360;28;20013;-78
2021/04/17 12:18:18;;;;;;;5.13;1.33;;;13.40;99.90;;;;;;5069034;28;20044;-78
2021/04/17 12:20:45;;;;;;;4.38;0.70;;;13.10;99.90;;;;;;5087489;28;20017;-80
2021/04/17 12:23:12;;;;;;;3.45;0.70;;;13.10;99.90;;;;;;5054243;28;20060;-78
2021/04/17 12:25:38;;;;;;;2.85;0.70;;;13.00;99.90;;;;;;5053795;28;20487;-79
2021/04/17 12:28:04;;;;;;;3.50;0.60;;;12.90;99.90;;;;;;5061238;28;20033;-78
2021/04/17 12:30:31;;;;;;;7.22;0.85;;;13.30;99.90;;;;;;5063416;28;20024;-79
2021/04/17 12:32:56;;;;;;;3.35;0.70;;;13.20;99.90;;;;;;5055894;28;20043;-78
2021/04/17 12:35:22;;;;;;;3.85;0.60;;;13.10;99.90;;;;;;5079961;28;20036;-79
2021/04/17 12:37:48;;;;;;;3.60;0.70;;;13.70;99.90;;;;;;5063246;28;20045;-80
2021/04/17 12:40:16;;;;;;;3.75;0.80;;;13.60;99.30;;;;;;5063586;28;20063;-79
2021/04/17 12:42:41;;;;;;;6.25;0.70;;;12.80;99.90;;;;;;5063427;28;20079;-78
2021/04/17 12:45:09;;;;;;;3.50;0.73;;;13.20;99.90;;;;;;5063521;28;20050;-79
2021/04/17 12:47:36;;;;;;;3.33;0.70;;;13.20;99.90;;;;;;5063335;28;20167;-79
2021/04/17 12:50:03;;;;;;;6.03;1.33;;;13.00;99.90;;;;;;5046862;28;20021;-79
2021/04/17 12:52:29;;;;;;;5.10;0.90;;;13.60;99.90;;;;;;5046816;28;20029;-78
2021/04/17 12:54:54;;;;;;;4.25;0.90;;;13.60;99.50;;;;;;5063412;28;20096;-79
2021/04/17 12:57:20;;;;;;;5.95;1.05;;;13.80;98.70;;;;;;5064258;28;20037;-79
2021/04/17 12:59:46;;;;;;;7.30;0.82;;;13.10;98.50;;;;;;5070448;28;20060;-79
2021/04/17 13:02:12;;;;;;;4.78;0.75;;;13.20;99.30;;;;;;5085006;28;20025;-79